Time;durP1;ratioP1;P1;durP2;ratioP2;P2;SDS_P1;SDS_P2;PMS_P1;PMS_P2;Temp;Humidity;BMP_temperature;BMP_pressure;BME280_temperature;BME280_humidity;BME280_pressure;Samples;Min_cycle;Max_cycle;Signal;HPM_P1;HPM_P2
2024/05/03 00:01:31;;;;;;;3.67;2.33;;;;;;;15.38;44.10;100229.38;5296617;26;20017;-77
2024/05/03 00:03:57;;;;;;;7.90;2.67;;;;;;;15.42;44.02;100232.63;5289856;26;20005;-76
2024/05/03 00:06:22;;;;;;;4.65;2.53;;;;;;;15.41;44.35;100228.31;5297960;26;20027;-76
2024/05/03 00:08:48;;;;;;;6.68;2.25;;;;;;;15.32;44.36;100235.06;5287242;26;20079;-76
2024/05/03 00:11:13;;;;;;;6.75;2.72;;;;;;;15.44;43.76;100234.22;5323837;26;20017;-76
2024/05/03 00:13:39;;;;;;;6.55;2.42;;;;;;;15.32;44.11;100230.63;5295411;26;20437;-76
2024/05/03 00:16:04;;;;;;;7.60;2.83;;;;;;;15.31;44.28;100233.38;5319977;26;20028;-76
2024/05/03 00:18:30;;;;;;;7.60;2.80;;;;;;;15.08;44.65;100233.19;5276823;26;20010;-77
2024/05/03 00:20:55;;;;;;;6.10;2.80;;;;;;;15.17;44.46;100240.44;5289050;26;20019;-76
2024/05/03 00:23:21;;;;;;;9.65;3.30;;;;;;;15.11;44.86;100238.22;5304065;26;20551;-76
2024/05/03 00:25:47;;;;;;;4.28;2.67;;;;;;;15.21;44.58;100227.88;5337873;26;20041;-76
2024/05/03 00:28:12;;;;;;;6.50;3.05;;;;;;;15.25;44.39;100236.44;5294502;26;20519;-76
2024/05/03 00:30:38;;;;;;;7.20;2.78;;;;;;;15.23;44.56;100230.44;5277871;26;20576;-76
2024/05/03 00:33:03;;;;;;;6.75;2.90;;;;;;;15.19;44.83;100232.41;5270251;26;20016;-76
2024/05/03 00:35:29;;;;;;;6.30;2.63;;;;;;;15.13;44.74;100232.84;5303670;26;20014;-76
2024/05/03 00:37:55;;;;;;;6.35;2.72;;;;;;;15.06;45.12;100229.81;5287395;26;20042;-76
2024/05/03 00:40:20;;;;;;;4.03;2.58;;;;;;;15.01;44.91;100233.69;5296163;26;20040;-76
2024/05/03 00:42:46;;;;;;;10.38;3.20;;;;;;;14.83;45.54;100233.16;5320255;26;20005;-76
2024/05/03 00:45:11;;;;;;;3.42;2.28;;;;;;;14.83;45.57;100228.72;5304436;26;20009;-76
2024/05/03 00:47:37;;;;;;;3.78;2.78;;;;;;;14.74;45.45;100224.94;5346119;26;20543;-76
2024/05/03 00:50:05;;;;;;;3.60;2.47;;;;;;;14.68;45.85;100230.63;5290613;26;20012;-76
2024/05/03 00:52:31;;;;;;;6.57;2.88;;;;;;;14.69;46.00;100232.31;5292406;26;20006;-76
2024/05/03 00:54:57;;;;;;;3.63;2.63;;;;;;;14.67;45.82;100228.94;5310962;26;20717;-76
2024/05/03 00:57:23;;;;;;;6.85;3.30;;;;;;;14.49;46.22;100235.44;5279618;26;20010;-76
2024/05/03 00:59:49;;;;;;;3.20;2.30;;;;;;;14.51;46.24;100230.91;5298008;26;20084;-76
2024/05/03 01:02:14;;;;;;;4.40;2.72;;;;;;;14.45;46.38;100228.69;5293575;26;20021;-76
2024/05/03 01:04:40;;;;;;;7.13;3.38;;;;;;;14.27;46.84;100225.47;5293234;26;20476;-75
2024/05/03 01:07:06;;;;;;;6.25;2.80;;;;;;;14.23;46.52;100214.34;5292800;26;20081;-76
2024/05/03 01:09:32;;;;;;;3.58;2.63;;;;;;;14.21;46.94;100218.84;5348705;26;20017;-76
2024/05/03 01:11:57;;;;;;;4.78;2.53;;;;;;;14.06;47.10;100219.84;5313681;26;20016;-76
2024/05/03 01:14:22;;;;;;;5.85;3.40;;;;;;;14.07;47.22;100219.72;5294176;26;20090;-76
2024/05/03 01:16:48;;;;;;;3.13;2.47;;;;;;;14.02;47.30;100220.97;5302075;26;20624;-76
2024/05/03 01:19:13;;;;;;;5.68;2.15;;;;;;;14.04;47.13;100213.84;5298092;26;20399;-76
2024/05/03 01:22:08;;;;;;;7.28;2.55;;;;;;;13.82;47.63;100215.22;5298536;26;20009;-75
2024/05/03 01:24:34;;;;;;;7.97;2.88;;;;;;;13.88;47.68;100214.00;5296428;26;20001;-76
2024/05/03 01:26:59;;;;;;;7.80;3.72;;;;;;;13.82;47.75;100224.88;5281616;26;20387;-76
2024/05/03 01:29:25;;;;;;;4.13;2.58;;;;;;;13.35;48.79;100232.16;5293869;26;20005;-76
2024/05/03 01:31:50;;;;;;;6.03;3.22;;;;;;;13.67;48.09;100213.56;5310720;26;20082;-76
2024/05/03 01:34:15;;;;;;;5.43;3.25;;;;;;;13.70;47.68;100218.66;5287909;26;20627;-76
2024/05/03 01:36:41;;;;;;;4.40;2.83;;;;;;;13.65;48.14;100212.81;5352262;26;20009;-76
2024/05/03 01:39:06;;;;;;;6.10;2.85;;;;;;;13.63;47.94;100217.31;5328896;26;20021;-75
2024/05/03 01:41:32;;;;;;;5.43;3.00;;;;;;;13.58;48.12;100216.78;5328486;26;20891;-76
2024/05/03 01:43:58;;;;;;;5.32;2.92;;;;;;;13.67;47.97;100226.69;5297484;26;20726;-75
2024/05/03 01:46:24;;;;;;;3.35;2.40;;;;;;;13.55;48.38;100227.47;5294720;26;20049;-75
2024/05/03 01:48:50;;;;;;;9.05;3.13;;;;;;;13.58;48.04;100228.13;5294827;26;20499;-75
2024/05/03 01:51:15;;;;;;;7.57;2.85;;;;;;;13.45;48.37;100229.78;5331406;26;20343;-77
2024/05/03 01:53:41;;;;;;;7.03;3.00;;;;;;;13.21;48.51;100237.44;5300369;26;20013;-76
2024/05/03 01:56:06;;;;;;;8.95;2.65;;;;;;;13.45;48.22;100224.53;5287594;26;20005;-76
2024/05/03 01:58:32;;;;;;;5.13;3.35;;;;;;;13.40;48.25;100221.38;5302378;26;20010;-76
2024/05/03 02:00:57;;;;;;;7.35;3.47;;;;;;;13.30;48.48;100229.81;5284153;26;20009;-75
2024/05/03 02:03:23;;;;;;;4.70;2.75;;;;;;;13.27;48.68;100237.03;5273448;26;20013;-74
2024/05/03 02:05:49;;;;;;;4.63;3.55;;;;;;;13.20;49.36;100244.44;5304955;26;20009;-75
2024/05/03 02:08:15;;;;;;;10.25;3.53;;;;;;;13.22;49.08;100239.09;5297999;26;20028;-75
2024/05/03 02:10:40;;;;;;;7.28;3.35;;;;;;;13.21;49.04;100234.81;5299477;26;20014;-74
2024/05/03 02:13:06;;;;;;;4.32;3.03;;;;;;;13.13;49.30;100242.28;5315937;26;20018;-76
2024/05/03 02:15:31;;;;;;;5.35;3.25;;;;;;;13.17;49.34;100239.38;5293251;26;20009;-77
2024/05/03 02:17:56;;;;;;;4.72;3.58;;;;;;;13.09;49.29;100250.34;5288112;26;20017;-76
2024/05/03 02:20:22;;;;;;;6.35;3.35;;;;;;;13.03;49.94;100244.63;5297675;26;20082;-76
2024/05/03 02:22:47;;;;;;;2.85;2.53;;;;;;;13.15;49.46;100237.78;5305025;26;20020;-76
2024/05/03 02:25:13;;;;;;;7.97;3.58;;;;;;;13.10;49.22;100235.44;5294709;26;20045;-77
2024/05/03 02:27:38;;;;;;;6.47;3.38;;;;;;;13.07;49.27;100238.25;5319138;26;20096;-77
2024/05/03 02:30:04;;;;;;;8.13;3.70;;;;;;;12.87;49.83;100236.81;5296172;26;20604;-77
2024/05/03 02:32:30;;;;;;;6.90;3.10;;;;;;;12.97;49.73;100222.22;5265337;26;20020;-77
2024/05/03 02:34:55;;;;;;;7.07;3.25;;;;;;;12.90;49.99;100227.00;5319333;26;20077;-77
2024/05/03 02:37:21;;;;;;;5.75;3.00;;;;;;;12.98;49.48;100229.19;5287762;26;20344;-74
2024/05/03 02:39:46;;;;;;;10.05;3.80;;;;;;;12.73;50.13;100231.56;5292205;26;20108;-77
2024/05/03 02:42:12;;;;;;;9.27;3.90;;;;;;;12.83;49.84;100232.72;5324486;26;20397;-76
2024/05/03 02:44:37;;;;;;;11.25;2.95;;;;;;;12.78;50.17;100234.75;5292022;26;20554;-77
2024/05/03 02:47:03;;;;;;;7.65;3.33;;;;;;;12.70;50.21;100243.91;5328255;26;20401;-76
2024/05/03 02:49:28;;;;;;;7.93;3.50;;;;;;;12.68;50.13;100235.25;5261164;26;20013;-76
2024/05/03 02:51:53;;;;;;;17.52;4.10;;;;;;;12.64;50.59;100246.03;5304143;26;20001;-76
2024/05/03 02:54:19;;;;;;;8.57;3.92;;;;;;;12.62;50.24;100250.50;5297956;26;20056;-76
2024/05/03 02:56:46;;;;;;;6.80;3.50;;;;;;;12.61;50.31;100251.47;5294401;26;20473;-75
2024/05/03 02:59:11;;;;;;;9.07;3.55;;;;;;;12.59;50.69;100253.31;5293905;26;20010;-75
2024/05/03 03:01:43;;;;;;;6.50;3.20;;;;;;;12.69;50.20;100247.50;5295881;26;20012;-75
2024/05/03 03:04:08;;;;;;;4.07;2.97;;;;;;;12.63;50.56;100254.84;5291046;26;20009;-76
2024/05/03 03:06:36;;;;;;;4.72;3.53;;;;;;;12.56;50.77;100251.72;5297515;26;20031;-76
2024/05/03 03:09:02;;;;;;;9.25;3.15;;;;;;;12.52;50.80;100250.22;5286972;26;20528;-75
2024/05/03 03:11:28;;;;;;;5.45;4.25;;;;;;;12.47;51.07;100250.47;5262076;26;20005;-77
2024/05/03 03:13:54;;;;;;;5.43;3.80;;;;;;;12.46;50.87;100253.19;5330546;26;20009;-75
2024/05/03 03:16:20;;;;;;;7.25;3.47;;;;;;;12.32;51.42;100251.38;5289557;26;20021;-75
2024/05/03 03:18:46;;;;;;;4.90;3.88;;;;;;;12.27;51.61;100250.78;5315807;26;20826;-76
2024/05/03 03:21:17;;;;;;;13.38;4.15;;;;;;;12.31;51.34;100249.66;5294525;26;20357;-75
2024/05/03 03:23:43;;;;;;;9.18;4.85;;;;;;;12.21;51.48;100251.97;5299391;26;20028;-76
2024/05/03 03:26:09;;;;;;;8.63;3.55;;;;;;;12.24;51.44;100256.19;5321099;26;20023;-75
2024/05/03 03:28:35;;;;;;;6.95;3.58;;;;;;;12.14;51.87;100258.50;5269812;26;20012;-75
2024/05/03 03:31:03;;;;;;;7.35;4.35;;;;;;;12.10;51.71;100256.13;5324734;26;20516;-75
2024/05/03 03:33:29;;;;;;;4.72;3.95;;;;;;;12.19;52.06;100256.44;5292201;26;20471;-75
2024/05/03 03:35:55;;;;;;;6.35;3.42;;;;;;;12.01;52.05;100247.00;5292052;26;20005;-75
2024/05/03 03:38:21;;;;;;;7.18;3.53;;;;;;;12.10;52.01;100253.50;5269469;26;20444;-76
2024/05/03 03:40:46;;;;;;;10.35;4.38;;;;;;;12.02;52.14;100252.19;5296954;26;20377;-76
2024/05/03 03:43:12;;;;;;;11.25;3.97;;;;;;;11.98;52.33;100258.50;5283433;26;20045;-75
2024/05/03 03:45:37;;;;;;;5.70;3.97;;;;;;;11.97;51.96;100266.44;5303052;26;20052;-76
2024/05/03 03:48:03;;;;;;;8.23;3.75;;;;;;;11.92;52.22;100268.47;5338282;26;20014;-75
2024/05/03 03:50:29;;;;;;;6.88;3.25;;;;;;;12.01;51.86;100268.81;5301401;26;20492;-77
2024/05/03 03:52:54;;;;;;;10.65;4.50;;;;;;;12.06;51.65;100271.16;5287818;26;20005;-75
2024/05/03 03:55:20;;;;;;;8.27;3.95;;;;;;;12.02;52.03;100267.88;5300566;26;20013;-75
2024/05/03 03:57:45;;;;;;;10.23;3.88;;;;;;;12.02;52.16;100269.63;5344934;26;20001;-75
2024/05/03 04:00:13;;;;;;;9.85;4.22;;;;;;;12.07;51.89;100280.72;5301181;26;20010;-75
2024/05/03 04:02:38;;;;;;;9.88;3.97;;;;;;;12.10;51.64;100287.56;5285728;26;20009;-74
2024/05/03 04:05:05;;;;;;;8.98;3.90;;;;;;;11.97;52.12;100293.47;5281874;26;20014;-74
2024/05/03 04:07:30;;;;;;;5.57;3.67;;;;;;;12.10;51.79;100293.66;5288624;26;20018;-75
2024/05/03 04:09:56;;;;;;;10.60;5.45;;;;;;;12.07;52.05;100289.44;5298203;26;20028;-75
2024/05/03 04:12:21;;;;;;;7.30;3.95;;;;;;;12.10;52.13;100296.25;5291035;26;20019;-74
2024/05/03 04:14:46;;;;;;;6.82;4.60;;;;;;;12.16;51.97;100298.53;5301754;26;20489;-75
2024/05/03 04:17:12;;;;;;;6.68;3.95;;;;;;;12.07;52.19;100304.31;5294117;26;20424;-75
2024/05/03 04:19:37;;;;;;;6.60;4.32;;;;;;;12.16;51.98;100302.94;5298307;26;20010;-76
2024/05/03 04:22:03;;;;;;;9.48;5.10;;;;;;;12.14;51.98;100310.06;5291216;26;20303;-75
2024/05/03 04:24:28;;;;;;;6.97;3.70;;;;;;;11.96;52.07;100311.91;5295527;26;20013;-75
2024/05/03 04:26:54;;;;;;;6.20;4.05;;;;;;;12.22;51.89;100321.78;5295206;26;20166;-75
2024/05/03 04:29:19;;;;;;;11.02;4.43;;;;;;;12.07;52.04;100326.09;5271307;26;20742;-75
2024/05/03 04:31:45;;;;;;;8.07;4.05;;;;;;;12.11;51.77;100316.31;5294817;26;20016;-75
2024/05/03 04:34:10;;;;;;;6.57;3.80;;;;;;;12.32;51.80;100324.72;5350002;26;20013;-75
2024/05/03 04:36:37;;;;;;;6.13;3.80;;;;;;;12.35;51.47;100319.31;5300845;26;20246;-75
2024/05/03 04:39:03;;;;;;;7.90;4.00;;;;;;;12.46;51.45;100324.78;5292938;26;20006;-75
2024/05/03 04:41:28;;;;;;;7.50;4.10;;;;;;;12.49;51.44;100324.63;5302939;26;20017;-76
2024/05/03 04:43:54;;;;;;;11.13;4.35;;;;;;;12.55;51.27;100325.19;5219808;26;20009;-75
2024/05/03 04:46:19;;;;;;;9.00;3.80;;;;;;;12.50;51.30;100328.94;5293470;26;20004;-75
2024/05/03 04:48:45;;;;;;;9.02;4.50;;;;;;;12.55;51.03;100326.03;5291501;26;20646;-76
2024/05/03 04:51:11;;;;;;;10.60;4.18;;;;;;;12.62;50.81;100326.53;5290866;26;20444;-75
2024/05/03 04:53:38;;;;;;;10.45;3.72;;;;;;;12.66;50.91;100331.50;5292759;26;20559;-75
2024/05/03 04:56:03;;;;;;;6.30;4.00;;;;;;;12.80;50.58;100322.03;5310579;26;20017;-76
2024/05/03 04:58:29;;;;;;;5.78;3.78;;;;;;;12.83;50.59;100329.75;5343797;26;20005;-75
2024/05/03 05:00:54;;;;;;;6.20;3.58;;;;;;;13.02;49.80;100342.63;5296494;26;20037;-75
2024/05/03 05:03:20;;;;;;;9.60;3.70;;;;;;;13.13;49.78;100337.59;5290342;26;20005;-75
2024/05/03 05:05:45;;;;;;;7.50;3.83;;;;;;;13.26;49.50;100337.69;5296343;26;20053;-75
2024/05/03 05:08:11;;;;;;;4.60;3.00;;;;;;;13.49;49.57;100334.50;5286791;26;20087;-76
2024/05/03 05:10:37;;;;;;;7.60;3.70;;;;;;;13.53;48.86;100336.03;5269785;26;20002;-76
2024/05/03 05:13:04;;;;;;;8.43;3.85;;;;;;;13.44;48.91;100336.59;5348038;26;20069;-76
2024/05/03 05:15:29;;;;;;;8.80;3.90;;;;;;;13.42;49.27;100348.13;5294177;26;20013;-76
2024/05/03 05:17:55;;;;;;;4.53;3.03;;;;;;;13.46;49.00;100350.47;5302579;26;20020;-75
2024/05/03 05:20:25;;;;;;;6.50;3.30;;;;;;;13.68;48.38;100349.19;5299992;26;20539;-75
2024/05/03 05:22:51;;;;;;;6.95;3.72;;;;;;;13.99;47.78;100352.56;5291434;26;20601;-76
2024/05/03 05:25:16;;;;;;;5.88;3.67;;;;;;;15.29;45.18;100362.50;5287149;26;20009;-75
2024/05/03 05:27:42;;;;;;;9.60;2.95;;;;;;;16.39;42.47;100359.16;5294673;26;20485;-76
2024/05/03 05:30:08;;;;;;;4.28;2.63;;;;;;;15.88;43.19;100359.28;5292446;26;20009;-75
2024/05/03 05:32:33;;;;;;;4.75;3.05;;;;;;;16.97;41.22;100347.94;5291306;26;20002;-76
2024/05/03 05:34:59;;;;;;;4.65;2.75;;;;;;;18.05;38.65;100351.00;5288966;26;20009;-76
2024/05/03 05:37:25;;;;;;;8.07;3.40;;;;;;;18.75;37.11;100349.75;5289961;26;20024;-76
2024/05/03 05:39:51;;;;;;;9.40;2.80;;;;;;;18.02;38.35;100354.75;5302393;26;20009;-76
2024/05/03 05:42:17;;;;;;;8.63;3.00;;;;;;;17.13;40.21;100353.72;5299607;26;20031;-76
2024/05/03 05:44:44;;;;;;;6.90;3.10;;;;;;;16.71;41.52;100358.63;5300449;26;20025;-75
2024/05/03 05:47:09;;;;;;;6.20;2.58;;;;;;;16.95;41.64;100355.13;5275060;26;20485;-76
2024/05/03 05:49:35;;;;;;;6.05;3.40;;;;;;;17.47;40.17;100359.06;5296256;26;20084;-75
2024/05/03 05:52:00;;;;;;;10.07;3.13;;;;;;;17.85;39.46;100360.56;5272013;26;20478;-76
2024/05/03 05:54:28;;;;;;;9.50;3.30;;;;;;;16.63;41.22;100366.25;5291209;26;20024;-76
2024/05/03 05:56:56;;;;;;;12.90;3.22;;;;;;;16.75;42.22;100360.09;5348057;26;22941;-76
2024/05/03 05:59:22;;;;;;;10.27;3.20;;;;;;;17.92;39.95;100366.19;5301443;26;20659;-75
2024/05/03 06:01:49;;;;;;;11.10;3.35;;;;;;;19.10;37.06;100369.84;5320042;26;20001;-75
2024/05/03 06:04:17;;;;;;;5.03;2.67;;;;;;;19.87;35.80;100368.56;5290404;26;20016;-75
2024/05/03 06:06:46;;;;;;;8.38;2.67;;;;;;;20.36;34.90;100369.56;5291157;26;20059;-76
2024/05/03 06:09:14;;;;;;;7.93;3.05;;;;;;;20.84;33.37;100360.81;5292110;26;20777;-75
2024/05/03 06:11:40;;;;;;;9.27;2.40;;;;;;;21.10;33.45;100368.16;5294983;26;20009;-76
2024/05/03 06:14:06;;;;;;;6.85;3.22;;;;;;;21.11;33.10;100367.19;5289961;26;20386;-76
2024/05/03 06:16:32;;;;;;;6.80;3.15;;;;;;;21.43;32.72;100364.16;5292532;26;20006;-76
2024/05/03 06:18:58;;;;;;;4.82;2.80;;;;;;;20.98;33.28;100367.50;5286847;26;20055;-76
2024/05/03 06:21:25;;;;;;;7.18;2.85;;;;;;;21.07;32.84;100368.47;5345583;26;21292;-76
2024/05/03 06:23:51;;;;;;;4.43;2.90;;;;;;;21.79;32.38;100360.84;5341125;26;20010;-76
2024/05/03 06:26:17;;;;;;;6.07;2.80;;;;;;;22.43;31.46;100373.25;5319911;26;20052;-76
2024/05/03 06:28:42;;;;;;;9.27;2.55;;;;;;;22.38;31.23;100367.50;5304714;26;20481;-76
2024/05/03 06:31:09;;;;;;;8.48;2.83;;;;;;;22.29;31.20;100361.28;5321326;26;20024;-76
2024/05/03 06:33:36;;;;;;;5.85;2.20;;;;;;;21.98;31.67;100371.41;5297920;26;20033;-76
2024/05/03 06:36:02;;;;;;;7.70;2.92;;;;;;;21.77;32.09;100372.47;5289607;26;20071;-76
2024/05/03 06:38:28;;;;;;;6.75;3.08;;;;;;;22.23;31.35;100361.06;5269563;26;20406;-75
2024/05/03 06:40:55;;;;;;;8.57;2.78;;;;;;;22.58;31.02;100374.41;5287719;26;20031;-75
2024/05/03 06:43:20;;;;;;;5.97;2.63;;;;;;;22.80;30.76;100378.41;5290231;26;20006;-76
2024/05/03 06:45:46;;;;;;;7.05;2.22;;;;;;;23.41;29.87;100374.06;5291241;26;20340;-76
2024/05/03 06:48:12;;;;;;;12.45;3.47;;;;;;;22.92;30.12;100379.03;5266962;26;20024;-76
2024/05/03 06:50:39;;;;;;;8.52;2.63;;;;;;;22.52;30.25;100387.47;5290331;26;20005;-76
2024/05/03 06:53:07;;;;;;;10.15;2.70;;;;;;;22.77;30.34;100388.56;5287785;26;20713;-77
2024/05/03 06:55:32;;;;;;;5.72;2.67;;;;;;;22.26;31.13;100390.88;5317956;26;20002;-76
2024/05/03 06:57:58;;;;;;;4.53;2.15;;;;;;;22.51;31.30;100399.09;5285694;26;20440;-77
2024/05/03 07:00:24;;;;;;;10.07;2.80;;;;;;;22.66;30.57;100402.09;5289042;26;20013;-76
2024/05/03 07:02:50;;;;;;;4.97;2.83;;;;;;;22.70;30.63;100406.16;5285582;26;20010;-77
2024/05/03 07:05:15;;;;;;;8.20;3.05;;;;;;;23.29;30.33;100401.97;5289435;26;20009;-76
2024/05/03 07:07:41;;;;;;;9.10;3.38;;;;;;;23.97;29.63;100405.72;5313264;26;20079;-76
2024/05/03 07:10:06;;;;;;;7.75;3.33;;;;;;;22.46;31.10;100399.56;5291499;26;20530;-76
2024/05/03 07:12:32;;;;;;;7.70;3.38;;;;;;;22.77;30.85;100404.56;5289637;26;20020;-76
2024/05/03 07:14:57;;;;;;;7.57;2.95;;;;;;;23.09;29.87;100406.63;5295441;26;20122;-77
2024/05/03 07:17:23;;;;;;;9.10;4.47;;;;;;;23.04;30.68;100392.94;5339601;26;20679;-77
2024/05/03 07:19:49;;;;;;;7.18;4.05;;;;;;;22.50;31.23;100405.44;5289128;26;20082;-74
2024/05/03 07:22:14;;;;;;;7.65;3.70;;;;;;;21.30;33.26;100408.84;5284476;26;20010;-74
2024/05/03 07:24:40;;;;;;;6.82;4.82;;;;;;;22.34;32.00;100411.44;5288039;26;20020;-75
2024/05/03 07:27:06;;;;;;;11.43;4.72;;;;;;;22.44;31.91;100422.84;5283746;26;22318;-75
2024/05/03 07:29:34;;;;;;;6.78;3.80;;;;;;;22.42;32.12;100416.00;5344068;26;20013;-75
2024/05/03 07:32:05;;;;;;;6.80;4.80;;;;;;;23.29;30.65;100420.63;5341120;26;20017;-74
2024/05/03 07:34:31;;;;;;;5.70;3.45;;;;;;;23.39;30.75;100434.72;5312323;26;20019;-75
2024/05/03 07:36:56;;;;;;;11.35;5.55;;;;;;;22.77;31.94;100431.19;5344664;26;20014;-75
2024/05/03 07:39:23;;;;;;;12.38;5.85;;;;;;;22.23;32.87;100432.94;5297953;26;20060;-75
2024/05/03 07:41:49;;;;;;;8.32;5.88;;;;;;;20.74;34.92;100442.25;5287820;26;20009;-75
2024/05/03 07:44:14;;;;;;;12.25;6.75;;;;;;;19.45;37.55;100443.66;5287005;26;20469;-75
2024/05/03 07:46:40;;;;;;;10.38;7.60;;;;;;;18.82;38.51;100451.53;5296788;26;20023;-77
2024/05/03 07:49:06;;;;;;;13.05;7.25;;;;;;;18.43;39.87;100451.16;5306520;26;20028;-77
2024/05/03 07:51:31;;;;;;;13.60;7.95;;;;;;;18.97;39.04;100453.94;5312652;26;20020;-76
2024/05/03 07:53:57;;;;;;;12.55;8.48;;;;;;;19.65;38.20;100439.34;5350544;26;20020;-77
2024/05/03 07:56:24;;;;;;;16.48;8.10;;;;;;;20.83;36.26;100452.03;5298142;26;20169;-75
2024/05/03 07:58:50;;;;;;;13.75;8.45;;;;;;;20.98;35.73;100449.03;5325028;26;20005;-75
2024/05/03 08:01:16;;;;;;;17.85;10.55;;;;;;;19.90;37.80;100455.81;5296865;26;20092;-77
2024/05/03 08:03:41;;;;;;;26.38;12.75;;;;;;;20.35;37.57;100451.94;5321889;26;20045;-76
2024/05/03 08:06:07;;;;;;;23.88;12.68;;;;;;;21.61;35.64;100460.00;5292578;26;20048;-76
2024/05/03 08:08:34;;;;;;;24.90;17.15;;;;;;;20.58;37.40;100464.03;5300761;26;20002;-77
2024/05/03 08:11:01;;;;;;;30.95;18.60;;;;;;;19.86;39.63;100478.25;5290550;26;20010;-76
2024/05/03 08:13:27;;;;;;;36.45;22.25;;;;;;;18.62;41.90;100490.19;5321155;26;20123;-77
2024/05/03 08:15:53;;;;;;;46.63;26.67;;;;;;;17.82;43.65;100495.59;5289354;26;20479;-76
2024/05/03 08:18:18;;;;;;;62.60;33.03;;;;;;;17.18;44.58;100504.75;5266780;26;20541;-76
2024/05/03 08:20:44;;;;;;;57.35;32.17;;;;;;;17.13;44.62;100501.59;5284366;26;20016;-76
2024/05/03 08:23:09;;;;;;;63.20;35.53;;;;;;;16.83;45.30;100499.41;5295267;26;20331;-75
2024/05/03 08:25:36;;;;;;;69.57;35.03;;;;;;;16.62;46.06;100507.88;5292669;26;20021;-76
2024/05/03 08:28:02;;;;;;;68.82;35.13;;;;;;;16.01;47.74;100512.19;5272228;26;20005;-76
2024/05/03 08:30:27;;;;;;;64.15;36.00;;;;;;;16.05;47.33;100512.81;5260385;26;20576;-76
2024/05/03 08:32:53;;;;;;;68.05;35.22;;;;;;;16.44;46.29;100511.81;5296693;26;20014;-76
2024/05/03 08:35:18;;;;;;;69.22;32.63;;;;;;;16.46;46.46;100519.63;5292611;26;20021;-75
2024/05/03 08:37:44;;;;;;;62.20;33.83;;;;;;;16.26;46.97;100523.66;5283624;26;20143;-76
2024/05/03 08:40:11;;;;;;;63.13;32.92;;;;;;;16.62;46.87;100526.34;5283430;26;20443;-76
2024/05/03 08:43:15;;;;;;;62.75;32.75;;;;;;;16.78;46.26;100525.28;5268169;26;20002;-76
2024/05/03 08:45:42;;;;;;;56.85;31.08;;;;;;;16.33;46.95;100533.69;5284100;26;20001;-76
2024/05/03 08:48:14;;;;;;;67.03;31.30;;;;;;;16.30;46.30;100544.44;5284994;26;20400;-77
2024/05/03 08:50:49;;;;;;;65.13;32.28;;;;;;;15.98;47.22;100544.84;5290438;26;20720;-76
2024/05/03 08:53:36;;;;;;;60.10;31.50;;;;;;;15.94;47.59;100547.78;5283646;26;20014;-75
2024/05/03 08:56:02;;;;;;;61.55;31.23;;;;;;;16.11;47.21;100557.22;5286411;26;20009;-76
2024/05/03 08:58:28;;;;;;;65.15;30.70;;;;;;;16.17;46.96;100554.13;5289912;26;20006;-76
2024/05/03 09:00:57;;;;;;;56.53;27.95;;;;;;;16.22;46.43;100554.69;5293582;26;20025;-76
2024/05/03 09:03:24;;;;;;;54.28;28.55;;;;;;;16.21;45.91;100555.63;5294362;26;20009;-77
2024/05/03 09:05:49;;;;;;;53.25;28.42;;;;;;;16.48;46.06;100559.94;5285671;26;20009;-76
2024/05/03 09:08:17;;;;;;;62.15;29.27;;;;;;;16.04;46.61;100558.56;5279367;26;20005;-76
2024/05/03 09:10:43;;;;;;;58.10;30.25;;;;;;;15.46;48.36;100555.38;5315173;26;20080;-76
2024/05/03 09:13:16;;;;;;;57.67;28.42;;;;;;;15.70;47.49;100568.72;5291204;26;20460;-76
2024/05/03 09:15:42;;;;;;;59.53;27.45;;;;;;;16.34;47.00;100564.38;5272757;26;20044;-76
2024/05/03 09:18:09;;;;;;;54.78;26.88;;;;;;;16.74;45.49;100564.22;5294644;26;20001;-76
2024/05/03 09:20:36;;;;;;;53.83;28.17;;;;;;;16.98;45.18;100564.28;5252326;26;20678;-78
2024/05/03 09:23:02;;;;;;;57.00;28.70;;;;;;;16.18;46.04;100572.50;5293723;26;20014;-77
2024/05/03 09:25:28;;;;;;;59.75;27.65;;;;;;;15.86;47.37;100574.63;5284121;26;20015;-79
2024/05/03 09:27:58;;;;;;;57.70;28.27;;;;;;;16.22;46.47;100583.69;5260824;26;20957;-77
2024/05/03 09:30:27;;;;;;;57.08;29.05;;;;;;;16.14;46.90;100586.84;5304867;26;20016;-76
2024/05/03 09:32:53;;;;;;;58.53;27.85;;;;;;;16.41;47.47;100583.25;5299581;26;20017;-77
2024/05/03 09:35:19;;;;;;;52.80;25.98;;;;;;;17.10;45.35;100591.59;5282086;26;20464;-76
2024/05/03 09:37:45;;;;;;;57.10;26.55;;;;;;;17.52;44.42;100591.25;5248885;26;20009;-77
2024/05/03 09:40:11;;;;;;;53.35;26.25;;;;;;;17.82;43.51;100598.69;5297167;26;20356;-77
2024/05/03 09:42:37;;;;;;;57.45;29.00;;;;;;;16.87;45.06;100603.81;5294621;26;20045;-76
2024/05/03 09:45:04;;;;;;;54.47;25.00;;;;;;;17.23;44.32;100597.69;5307118;26;20009;-79
2024/05/03 09:47:29;;;;;;;50.10;26.60;;;;;;;17.01;44.51;100601.03;5279172;26;20368;-79
2024/05/03 09:50:29;;;;;;;53.22;25.35;;;;;;;16.44;45.08;100613.84;5258961;26;20006;-76
2024/05/03 09:52:56;;;;;;;45.47;24.58;;;;;;;16.14;46.50;100620.28;5255751;26;20009;-76
2024/05/03 09:55:44;;;;;;;50.30;25.48;;;;;;;16.00;47.14;100622.03;5285960;26;20013;-74
2024/05/03 09:58:46;;;;;;;53.47;25.42;;;;;;;15.66;48.17;100625.19;5283987;26;20118;-74
2024/05/03 10:01:20;;;;;;;51.67;25.50;;;;;;;15.17;49.24;100631.81;5201520;27;20010;-75
2024/05/03 10:03:47;;;;;;;51.65;26.40;;;;;;;15.74;48.37;100636.06;5248096;26;20529;-75
2024/05/03 10:06:14;;;;;;;57.75;27.33;;;;;;;15.64;48.09;100632.34;5284353;26;20021;-75
2024/05/03 10:08:43;;;;;;;55.60;27.45;;;;;;;15.59;48.47;100633.50;5260806;26;20032;-74
2024/05/03 10:11:11;;;;;;;56.25;28.00;;;;;;;15.38;49.18;100634.88;5291532;26;20232;-77
2024/05/03 10:13:38;;;;;;;57.88;27.50;;;;;;;16.08;48.00;100639.97;5280519;26;20555;-76
2024/05/03 10:16:05;;;;;;;49.72;26.70;;;;;;;16.26;47.46;100640.53;5290686;26;20010;-76
2024/05/03 10:18:31;;;;;;;52.03;25.27;;;;;;;16.28;48.04;100643.06;5278407;26;20061;-77
2024/05/03 10:20:57;;;;;;;56.67;26.33;;;;;;;16.07;48.10;100640.94;5293746;26;19997;-77
2024/05/03 10:23:22;;;;;;;53.97;25.83;;;;;;;16.21;47.78;100646.09;5296915;26;20349;-74
2024/05/03 10:25:48;;;;;;;49.78;24.55;;;;;;;16.68;46.68;100643.81;5290581;26;20501;-77
2024/05/03 10:28:13;;;;;;;60.42;27.00;;;;;;;16.90;46.10;100648.47;5258147;26;20020;-77
2024/05/03 10:30:45;;;;;;;47.38;24.92;;;;;;;16.97;45.77;100649.72;5282167;26;20257;-76
2024/05/03 10:33:12;;;;;;;46.20;21.85;;;;;;;17.01;45.75;100656.47;5266287;26;20027;-74
2024/05/03 10:35:41;;;;;;;43.55;21.48;;;;;;;17.44;44.35;100663.09;5278937;26;20448;-75
2024/05/03 10:38:06;;;;;;;41.60;21.33;;;;;;;17.03;45.15;100664.28;5280521;26;20020;-74
2024/05/03 10:40:32;;;;;;;38.65;19.98;;;;;;;17.10;46.10;100662.88;5275711;26;20008;-74
2024/05/03 10:43:00;;;;;;;43.15;21.13;;;;;;;17.48;44.85;100664.59;5289861;26;20017;-75
2024/05/03 10:45:26;;;;;;;39.63;20.30;;;;;;;17.62;44.80;100664.44;5280780;26;20308;-74
2024/05/03 10:47:56;;;;;;;47.55;21.55;;;;;;;17.74;43.95;100664.47;5282726;26;21076;-75
2024/05/03 10:50:23;;;;;;;40.97;20.40;;;;;;;17.50;44.08;100672.44;5278791;26;20056;-75
2024/05/03 10:52:49;;;;;;;41.28;20.42;;;;;;;17.17;44.69;100672.06;5283743;26;20016;-75
2024/05/03 10:55:14;;;;;;;38.58;17.90;;;;;;;17.74;44.56;100664.47;5277587;26;20002;-75
2024/05/03 10:57:40;;;;;;;40.22;20.52;;;;;;;17.68;44.29;100665.78;5274123;26;20152;-74
2024/05/03 11:00:10;;;;;;;34.92;19.27;;;;;;;18.47;43.65;100674.88;5274235;26;20529;-74
2024/05/03 11:02:35;;;;;;;35.25;21.15;;;;;;;18.20;42.56;100672.50;5277279;26;20020;-75
2024/05/03 11:05:05;;;;;;;31.10;17.30;;;;;;;17.54;44.18;100680.03;5283279;26;20005;-75
2024/05/03 11:07:44;;;;;;;30.42;16.65;;;;;;;16.88;44.86;100689.94;5271323;26;20009;-75
2024/05/03 11:10:14;;;;;;;35.92;18.67;;;;;;;16.63;46.07;100690.78;5290171;26;20001;-74
2024/05/03 11:12:40;;;;;;;36.65;18.13;;;;;;;16.61;46.75;100687.41;5287054;26;20016;-74
2024/05/03 11:15:06;;;;;;;29.88;16.83;;;;;;;16.66;46.85;100693.19;5284668;26;20470;-78
2024/05/03 11:17:33;;;;;;;30.00;17.73;;;;;;;16.21;47.90;100704.13;5275479;26;20152;-75